Aviation Digital Data Service (ADDS)

Output produced by METARs form (2027 UTC 20 July 2017)
found at http://www.aviationweather.gov/adds/metars/
 
KBOS 201954Z 24010KT 10SM FEW045 SCT080 BKN130 BKN200 32/19 A2984 RMK AO2 SLP105 T03220189
KBOS 201729Z 2018/2124 24008KT P6SM VCSH SCT060 
     FM210000 24007KT P6SM VCSH BKN060 
     FM210300 26008KT P6SM BKN130
       
KLGA 201951Z 25010KT 10SM SCT075 SCT250 36/17 A2986 RMK AO2 SLP113 T03560172
KLGA 201939Z 2020/2118 25010G16KT P6SM SCT070 SCT250 
     FM202100 21010KT P6SM SCT080 SCT200 
     TEMPO 2023/2102 2SM TSRA SCT025 BKN035CB 
     FM210200 32007KT P6SM FEW060 
     FM211500 29008KT P6SM FEW050
       
KJFK 201951Z 19016KT 10SM SCT055 BKN260 31/24 A2990 RMK AO2 SLP124 TCU DSNT N T03110244
KJFK 202011Z 2020/2124 19015KT P6SM SCT060 SCT250 
     TEMPO 2023/2102 2SM TSRA SCT025 BKN035CB 
     FM210200 32007KT P6SM FEW060 
     FM211500 28009KT P6SM FEW050 
     FM212000 24012KT P6SM SCT050
       
KEWR 201951Z 28016G21KT 10SM FEW065 BKN250 36/16 A2988 RMK AO2 SLP117 T03610156
KEWR 202010Z 2020/2124 26013G20KT P6SM SCT070 SCT250 
     FM202200 24012G17KT P6SM SCT080 SCT200 
     TEMPO 2023/2102 2SM TSRA SCT025 BKN035CB 
     FM210200 31007KT P6SM FEW060 
     FM211500 29008KT P6SM FEW050 
     FM211800 27011KT P6SM SCT060
       
KPHL 201954Z 25015KT 10SM FEW055 BKN300 35/19 A2991 RMK AO2 SLP129 T03500189
KPHL 201740Z 2018/2124 25010KT P6SM SCT050 
     FM210200 25006KT P6SM SCT100 
     FM211000 31006KT P6SM SCT100 
     FM211600 26010KT P6SM SCT050
       
KBWI 201954Z 25009KT 10SM FEW060 OVC250 36/20 A2992 RMK AO2 SLP131 T03560200
KBWI 201723Z 2018/2124 30011G14KT P6SM FEW050 
     FM202200 23006KT P6SM SCT070 
     FM211100 29004KT P6SM FEW250 
     FM211500 31008KT P6SM SCT060
       
KDCA 201952Z 27009KT 10SM SCT060 BKN250 36/20 A2994 RMK AO2 SLP140 T03560200
KDCA 201723Z 2018/2118 26006KT P6SM FEW050 
     FM202100 22007KT P6SM SCT070 
     FM211100 28005KT P6SM FEW250 
     FM211500 31007KT P6SM SCT050
       
KIAD 201952Z 18009KT 10SM FEW055 BKN140 BKN250 33/21 A2995 RMK AO2 SLP139 T03330206
KIAD 201723Z 2018/2124 27006KT P6SM FEW040 
     FM202200 VRB04KT P6SM SCT070 
     FM212000 30007KT P6SM SCT060
       
KCLT 201952Z VRB05KT 10SM FEW050 SCT140 SCT250 35/21 A3004 RMK AO2 SLP162 TCU DSNT SE-SW T03500206
KCLT 201730Z 2018/2118 34005KT P6SM FEW050 SCT250 
     FM202000 21004KT P6SM SCT060 BKN250 
     FM210100 18003KT P6SM SCT250 
     FM211000 30003KT P6SM SCT250 
     FM211600 24004KT P6SM FEW050 SCT250
       
KATL 201952Z 33010G17KT 10SM FEW050TCU SCT250 34/20 A3007 RMK AO2 SLP170 TCU N & SE & W T03390200
KATL 201931Z 2020/2124 34011G17KT P6SM VCSH SCT060 
     FM210100 26003KT P6SM SCT250 
     FM211400 29003KT P6SM FEW040 
     FM211800 20008KT P6SM SCT050
       
KTPA 201953Z 21007KT 10SM FEW030 SCT250 32/24 A3004 RMK AO2 LTG DSNT N SLP173 CB DSNT N TCU DSNT SE AND S T03170244
KTPA 201720Z 2018/2118 26006KT P6SM VCTS BKN040CB BKN100 
     TEMPO 2018/2021 VRB15G25KT 3SM +TSRA BKN025CB 
     FM202200 30006KT P6SM SHRA VCTS BKN050CB BKN150 
     FM210200 VRB03KT P6SM FEW150 SCT250 
     FM211400 24004KT P6SM VCTS SCT030CB SCT250
       
KMCO 202018Z COR 07011KT 10SM TS FEW043CB SCT060 BKN110 32/23 A3002 RMK AO2 LTG DSNT ALQDS TSB18 OCNL LTGICCG E TS E MOV S CB DSNT NE T03170233
KMCO 202011Z 2020/2118 09012KT P6SM VCTS SCT035CB BKN080 
     TEMPO 2020/2023 VRB15G25KT 3SM TSRA BKN030CB 
     FM210000 12006KT P6SM VCSH FEW040 BKN120 OVC250 
     FM211400 24005KT P6SM SCT035
       
KMIA 201953Z 17004KT 10SM FEW020 SCT047 BKN180 BKN300 32/24 A3005 RMK AO2 LTG DSNT N AND NW TSE02 SLP177 CB DSNT NW-N T03170244
KMIA 201836Z 2019/2118 12010KT P6SM VCTS SCT025CB BKN050 
     FM210200 20004KT P6SM SCT025 BKN250 
     FM211500 15008KT P6SM VCTS SCT025CB BKN100
       
KFLL 202009Z 03007KT 5SM TSRA BKN030CB BKN080 OVC250 26/23 A3005 RMK OCNL LTGIC SW TS SW-W MOV NE P0004 T02610233
KFLL 201835Z 2019/2118 12010KT P6SM VCTS SCT025CB BKN050 
     FM210200 20004KT P6SM SCT025 BKN250 
     FM211500 15008KT P6SM VCTS SCT025CB BKN100
       
KDTW 201953Z 23009KT 10SM FEW040 OVC065 28/20 A2999 RMK AO2 SLP150 T02830200
KDTW 201725Z 2018/2124 26011KT P6SM BKN045 
     FM202300 30007KT P6SM SCT045 
     FM210200 VRB03KT P6SM SCT250 
     TEMPO 2109/2112 6SM BR
       
KORD 201951Z 28007KT 10SM OVC036 30/23 A2995 RMK AO2 SLP136 T03000228
KORD 201927Z 2019/2124 28009KT P6SM BKN035 
     FM202200 03012KT P6SM VCTS BKN040CB 
     FM210000 04007KT P6SM BKN050 
     FM211500 12005KT P6SM BKN100 
     PROB30 2119/2122 TSRA BKN050CB
       
KMDW 201953Z 29012KT 10SM SCT035 SCT120 BKN250 31/23 A2994 RMK AO2 SLP128 T03110233
KMDW 201927Z 2019/2118 27013KT P6SM BKN035 
     FM202100 03012KT P6SM VCTS BKN040CB 
     FM210000 06009KT P6SM BKN050 
     FM211500 12005KT P6SM BKN100
       
KMSP 201953Z VRB06KT 10SM FEW035 SCT300 29/20 A3002 RMK AO2 SLP160 T02940200
KMSP 201743Z 2018/2124 33006KT P6SM SCT300 
     FM210200 VRB03KT P6SM SCT250 
     FM211200 14006KT P6SM BKN150 
     FM211800 14009KT P6SM VCSH SCT050 BKN100 
     PROB30 2120/2124 6SM -TSRA BKN040CB
       
KMEM 201954Z 26009KT 10SM SCT050 35/23 A3007 RMK AO2 SLP177 T03500233
KMEM 201727Z 2018/2118 25006KT P6SM SCT050 
     FM210100 20003KT P6SM FEW250 
     FM211600 24005KT P6SM SCT045
       
KDFW 201953Z 19008KT 10SM SCT060 37/20 A3003 RMK AO2 SLP157 T03670200 $
KDFW 201728Z 2018/2124 17008KT P6SM FEW050
       
KIAH 201953Z VRB03KT 10SM SCT050 34/22 A3005 RMK AO2 SLP176 T03440217
KIAH 201725Z 2018/2124 VRB04KT P6SM SCT045 SCT250 
     FM202000 15005KT P6SM VCSH SCT060 BKN250 
     FM210100 15006KT P6SM SCT250 
     FM211000 VRB02KT P6SM FEW020 SCT250 
     FM211700 VRB04KT P6SM SCT050 SCT250 
     FM212000 12006KT P6SM VCSH SCT060 BKN250
       
KDEN 201953Z 13003KT 10SM FEW080 FEW140 FEW220 33/11 A3016 RMK AO2 SLP115 T03330106
KDEN 201727Z 2018/2124 03007KT P6SM FEW080 SCT140 
     FM202200 29012KT P6SM VCTS SCT080CB BKN120 
     TEMPO 2022/2102 VRB20G30KT -TSRA BKN070CB 
     FM210200 22012KT P6SM VCSH SCT080 BKN120 
     FM210600 20011KT P6SM FEW120 SCT220 
     FM211600 01008KT P6SM FEW080 SCT140 
     FM212200 34010KT P6SM VCSH SCT080 BKN120
       
KSLC 201954Z 17017G25KT 10SM FEW090 FEW120 BKN190 BKN250 33/13 A3005 RMK AO2 PK WND 16029/1904 SLP109 CB DSNT SE AND S AND NW TCU DSNT SW ACSL DSNT NE AND SE T03280128
KSLC 202011Z 2020/2124 17015G23KT P6SM FEW080 BKN180 
     FM202300 17015G23KT P6SM VCSH SCT080 BKN150 
     FM210200 16014KT P6SM VCSH SCT080 BKN140 
     FM210600 15013KT P6SM SCT130 BKN200 
     FM211900 33010KT P6SM FEW090
       
KSEA 201953Z 20012KT 10SM FEW045 BKN050 20/12 A3016 RMK AO2 SLP217 T02000117
KSEA 201720Z 2018/2124 19012KT P6SM SCT020 BKN050 
     TEMPO 2018/2020 BKN020 OVC050 
     FM202000 22010KT P6SM SCT030 BKN060 
     FM210500 33005KT P6SM SCT040 BKN080 
     FM211200 17003KT P6SM BKN020 BKN150 
     FM211800 22004KT P6SM SCT025 BKN100
       
KSFO 201956Z 28018KT 10SM FEW035 19/11 A3007 RMK AO2 SLP181 T01890111
KSFO 201720Z 2018/2124 27014KT P6SM SCT025 
     FM201900 28018KT P6SM SKC 
     FM202300 28023G28KT P6SM SKC 
     FM210600 28015KT P6SM FEW010 
     FM210900 28010KT P6SM BKN010 
     FM211600 27008KT P6SM SCT010 
     FM212000 27014KT P6SM SKC
       
KLAX 201953Z 24010KT 10SM FEW180 26/19 A3000 RMK AO2 SLP156 T02610189 $
KLAX 201729Z 2018/2124 22006KT P6SM SKC 
     FM202000 26012KT P6SM SKC 
     FM210500 26006KT P6SM SCT010 
     FM210900 VRB03KT P6SM BKN008 
     FM211300 VRB03KT P6SM BKN012 
     FM211600 24006KT P6SM SCT015 
     FM212000 26012KT P6SM SKC
       
KSAN 201951Z 22008KT 10SM FEW013 FEW060 SCT120 SCT200 BKN250 24/18 A3002 RMK AO2 SLP164 CB DSNT E TCU DSNT NE T02440183
KSAN 201957Z 2020/2124 24008KT P6SM FEW013 SCT150 
     FM210100 VRB06KT P6SM SCT010 
     FM210400 VRB04KT P6SM BKN010 
     FM211600 VRB04KT P6SM SCT015 
     FM212000 26008KT P6SM FEW100
       
KLAS 201956Z 16004KT 10SM BKN150 BKN200 35/14 A2998 RMK AO2 SLP123 ACC DSNT NE-E T03500144
KLAS 201734Z 2018/2124 12006KT P6SM SCT120 BKN250 
     FM202100 18008KT P6SM SCT120 SCT250 
     FM210600 22010KT P6SM SCT120 SCT250 
     FM211200 VRB05KT P6SM SCT120 SCT250 
     FM211700 14006KT P6SM SCT120 SCT250
       
KPHX 201951Z 36004KT 10SM FEW080 FEW140 SCT200 36/16 A2992 RMK AO2 SLP111 CB DSNT N AND S AND NW T03610161
KPHX 201720Z 2018/2124 13007KT P6SM BKN150 BKN200 
     FM202000 27008KT P6SM FEW090 SCT150 SCT250 
     FM210600 12006KT P6SM SCT090 BKN150 BKN250 
     FM212100 26008KT P6SM FEW090 BKN120 BKN250
       
KSDF 201956Z 20007KT 7SM FEW045 BKN150 BKN200 OVC250 33/23 A3004 RMK AO2 SLP165 T03330228
KSDF 201720Z 2018/2124 26006KT P6SM FEW060 SCT200
       
KIND 201954Z 21011KT 10SM SCT180 BKN230 31/23 A3000 RMK AO2 SLP150 T03110233
KIND 201730Z 2018/2124 24008KT P6SM SCT050 SCT120 BKN200 
     FM210100 23005KT P6SM SCT110 
     FM210600 28005KT P6SM SCT045 BKN080 
     FM211200 21005KT P6SM FEW045 SCT110 BKN250